Time;durP1;ratioP1;P1;durP2;ratioP2;P2;SDS_P1;SDS_P2;PMS_P1;PMS_P2;Temp;Humidity;BMP_temperature;BMP_pressure;BME280_temperature;BME280_humidity;BME280_pressure;Samples;Min_cycle;Max_cycle;Signal;HPM_P1;HPM_P2
2023/08/24 00:01:16;;;;;;;;;;;;;;;28.17;100.00;99620.09;4936440;29;19981;-72
2023/08/24 00:03:43;;;;;;;;;;;;;;;28.20;100.00;99618.78;4936050;29;19923;-72
2023/08/24 00:06:09;;;;;;;;;;;;;;;28.27;100.00;99627.53;4930114;29;19957;-71
2023/08/24 00:08:34;;;;;;;;;;;;;;;28.38;100.00;99629.25;4933648;29;20335;-72
2023/08/24 00:11:00;;;;;;;;;;;;;;;28.38;100.00;99623.84;4933290;29;19926;-72
2023/08/24 00:13:25;;;;;;;;;;;;;;;28.39;100.00;99629.00;4933691;29;19930;-71
2023/08/24 00:15:52;;;;;;;;;;;;;;;28.28;100.00;99631.84;4935815;29;19922;-72
2023/08/24 00:18:18;;;;;;;;;;;;;;;28.21;100.00;99623.94;4933750;29;19923;-72
2023/08/24 00:20:44;;;;;;;;;;;;;;;28.16;100.00;99617.66;4933129;29;19958;-71
2023/08/24 00:23:09;;;;;;;;;;;;;;;27.95;100.00;99617.38;4933521;29;20009;-72
2023/08/24 00:25:34;;;;;;;;;;;;;;;27.82;100.00;99623.19;4948229;28;20352;-72
2023/08/24 00:28:00;;;;;;;;;;;;;;;27.81;100.00;99626.97;4933496;29;19922;-72
2023/08/24 00:30:25;;;;;;;;;;;;;;;27.81;100.00;99634.28;4933310;29;20395;-72
2023/08/24 00:32:50;;;;;;;;;;;;;;;27.75;100.00;99628.00;4933215;29;19923;-72
2023/08/24 00:35:16;;;;;;;;;;;;;;;27.79;100.00;99631.84;4933799;29;19969;-72
2023/08/24 00:37:41;;;;;;;;;;;;;;;27.82;100.00;99635.94;4936916;29;20025;-72
2023/08/24 00:40:10;;;;;;;;;;;;;;;27.85;100.00;99644.41;4937177;29;19923;-72
2023/08/24 00:42:43;;;;;;;;;;;;;;;27.89;100.00;99647.41;4937030;29;19923;-73
2023/08/24 00:45:09;;;;;;;;;;;;;;;27.96;100.00;99648.88;4936010;29;19927;-73
2023/08/24 00:47:35;;;;;;;;;;;;;;;28.06;100.00;99651.69;4937577;28;20030;-73
2023/08/24 00:50:01;;;;;;;;;;;;;;;28.19;100.00;99665.97;4937183;29;20009;-72
2023/08/24 00:52:28;;;;;;;;;;;;;;;28.26;100.00;99658.44;4936966;29;20412;-72
2023/08/24 00:54:54;;;;;;;;;;;;;;;28.35;100.00;99655.00;4936494;29;20340;-72
2023/08/24 00:57:19;;;;;;;;;;;;;;;28.42;100.00;99660.22;4936888;29;19923;-72
2023/08/24 00:59:46;;;;;;;;;;;;;;;28.45;100.00;99655.09;4933567;29;19926;-72
2023/08/24 01:02:12;;;;;;;;;;;;;;;28.42;100.00;99660.22;4949228;29;19919;-73
2023/08/24 01:04:37;;;;;;;;;;;;;;;28.40;100.00;99656.94;4935616;29;19951;-73
2023/08/24 01:07:02;;;;;;;;;;;;;;;28.41;100.00;99661.31;4936759;29;19937;-72
2023/08/24 01:09:29;;;;;;;;;;;;;;;28.43;100.00;99659.16;4951764;28;19943;-73
2023/08/24 01:12:04;;;;;;;;;;;;;;;28.44;100.00;99663.53;4951118;28;19927;-72
2023/08/24 01:14:42;;;;;;;;;;;;;;;28.33;100.00;99659.06;4937036;29;20292;-73
2023/08/24 01:17:09;;;;;;;;;;;;;;;28.23;100.00;99653.53;4939903;29;19923;-72
2023/08/24 01:19:41;;;;;;;;;;;;;;;28.19;100.00;99660.53;4936905;29;20447;-72
2023/08/24 01:22:25;;;;;;;;;;;;;;;28.10;100.00;99669.09;4936468;29;19973;-72
2023/08/24 01:25:00;;;;;;;;;;;;;;;28.05;100.00;99670.91;4948619;29;20336;-72
2023/08/24 01:27:26;;;;;;;;;;;;;;;28.04;100.00;99669.28;4951094;28;19929;-72
2023/08/24 01:29:52;;;;;;;;;;;;;;;28.11;100.00;99669.91;4936178;29;19923;-72
2023/08/24 01:32:17;;;;;;;;;;;;;;;28.18;100.00;99664.31;4950860;29;20005;-72
2023/08/24 01:34:43;;;;;;;;;;;;;;;28.21;100.00;99658.41;4934939;29;20014;-72
2023/08/24 01:37:08;;;;;;;;;;;;;;;28.16;100.00;99663.78;4936408;29;19958;-72
2023/08/24 01:39:53;;;;;;;;;;;;;;;28.06;100.00;99662.53;4936623;28;19974;-73
2023/08/24 01:42:21;;;;;;;;;;;;;;;27.95;100.00;99663.50;4934516;29;20410;-72
2023/08/24 01:44:52;;;;;;;;;;;;;;;27.94;100.00;99670.00;4935747;29;19923;-72
2023/08/24 01:47:18;;;;;;;;;;;;;;;27.88;100.00;99672.88;4934829;29;20295;-71
2023/08/24 01:49:44;;;;;;;;;;;;;;;27.80;100.00;99663.31;4950414;28;19930;-72
2023/08/24 01:52:10;;;;;;;;;;;;;;;27.69;100.00;99659.66;4950906;28;19919;-72
2023/08/24 01:54:36;;;;;;;;;;;;;;;27.66;100.00;99667.47;4936499;29;19923;-72
2023/08/24 01:57:01;;;;;;;;;;;;;;;27.63;100.00;99655.22;4950226;28;19927;-72
2023/08/24 01:59:27;;;;;;;;;;;;;;;27.66;100.00;99662.06;4951247;28;19954;-72
2023/08/24 02:01:52;;;;;;;;;;;;;;;27.66;100.00;99660.16;4950042;28;20441;-72
2023/08/24 02:04:17;;;;;;;;;;;;;;;27.65;100.00;99657.69;4936279;29;19938;-71
2023/08/24 02:06:43;;;;;;;;;;;;;;;27.61;100.00;99662.00;4951158;29;19923;-72
2023/08/24 02:09:08;;;;;;;;;;;;;;;27.61;100.00;99657.38;4952288;28;19922;-72
2023/08/24 02:11:34;;;;;;;;;;;;;;;27.45;100.00;99660.13;4936523;29;19923;-72
2023/08/24 02:14:00;;;;;;;;;;;;;;;27.40;100.00;99651.88;4950532;28;20265;-72
2023/08/24 02:16:25;;;;;;;;;;;;;;;27.18;100.00;99655.38;4935848;29;20021;-72
2023/08/24 02:18:50;;;;;;;;;;;;;;;27.23;100.00;99655.47;4935536;29;19923;-72
2023/08/24 02:21:16;;;;;;;;;;;;;;;27.28;100.00;99655.53;4935506;29;20013;-71
2023/08/24 02:23:41;;;;;;;;;;;;;;;27.37;100.00;99657.81;4951442;28;19929;-71
2023/08/24 02:26:07;;;;;;;;;;;;;;;27.35;100.00;99654.53;4935175;29;20340;-72
2023/08/24 02:28:32;;;;;;;;;;;;;;;27.40;100.00;99654.59;4950031;29;20505;-72
2023/08/24 02:31:02;;;;;;;;;;;;;;;27.30;100.00;99653.41;4937505;29;19930;-71
2023/08/24 02:33:27;;;;;;;;;;;;;;;27.30;100.00;99653.41;4935244;29;19923;-72
2023/08/24 02:35:54;;;;;;;;;;;;;;;27.28;100.00;99660.94;4949339;29;19966;-73
2023/08/24 02:38:21;;;;;;;;;;;;;;;27.35;100.00;99654.53;4952501;28;19926;-72
2023/08/24 02:40:46;;;;;;;;;;;;;;;27.37;100.00;99657.81;4934390;29;20384;-73
2023/08/24 02:43:12;;;;;;;;;;;;;;;27.39;100.00;99653.78;4935061;29;19929;-71
2023/08/24 02:45:37;;;;;;;;;;;;;;;27.41;100.00;99651.66;4933538;29;19923;-71
2023/08/24 02:48:03;;;;;;;;;;;;;;;27.38;100.00;99651.34;4949581;28;20031;-72
2023/08/24 02:50:28;;;;;;;;;;;;;;;27.39;100.00;99655.69;4934821;29;19923;-71
2023/08/24 02:52:53;;;;;;;;;;;;;;;27.42;100.00;99657.88;4934530;29;19934;-71
2023/08/24 02:55:19;;;;;;;;;;;;;;;27.44;100.00;99655.75;4934592;29;19927;-72
2023/08/24 02:57:44;;;;;;;;;;;;;;;27.36;100.00;99657.00;4934292;29;20017;-73
2023/08/24 03:00:11;;;;;;;;;;;;;;;27.35;100.00;99659.94;4934832;29;20336;-72
2023/08/24 03:02:37;;;;;;;;;;;;;;;27.32;100.00;99660.47;4933669;29;19919;-71
2023/08/24 03:05:02;;;;;;;;;;;;;;;27.29;100.00;99668.00;4934445;29;19933;-72
2023/08/24 03:07:28;;;;;;;;;;;;;;;27.33;100.00;99657.50;4934786;29;20281;-72
2023/08/24 03:09:53;;;;;;;;;;;;;;;27.37;100.00;99658.66;4936971;29;19918;-72
2023/08/24 03:12:18;;;;;;;;;;;;;;;27.33;100.00;99656.69;4940247;28;19997;-73
2023/08/24 03:14:44;;;;;;;;;;;;;;;27.29;100.00;99662.59;4921879;29;20026;-72
2023/08/24 03:17:09;;;;;;;;;;;;;;;27.23;100.00;99660.06;4926526;29;19962;-73
2023/08/24 03:19:35;;;;;;;;;;;;;;;27.22;100.00;99661.13;4926756;29;19957;-72
2023/08/24 03:22:00;;;;;;;;;;;;;;;27.18;100.00;99660.81;4929608;29;19925;-71
2023/08/24 03:24:25;;;;;;;;;;;;;;;27.20;100.00;99661.38;4930081;29;19930;-72
2023/08/24 03:26:52;;;;;;;;;;;;;;;27.20;100.00;99664.09;4912826;29;20333;-71
2023/08/24 03:29:19;;;;;;;;;;;;;;;27.27;100.00;99659.31;4928922;29;20030;-71
2023/08/24 03:31:44;;;;;;;;;;;;;;;27.17;100.00;99670.00;4929309;29;19934;-71
2023/08/24 03:34:10;;;;;;;;;;;;;;;27.18;100.00;99660.81;4928701;29;20005;-70
2023/08/24 03:36:35;;;;;;;;;;;;;;;27.18;100.00;99660.81;4922594;29;19922;-71
2023/08/24 03:39:01;;;;;;;;;;;;;;;27.24;100.00;99662.53;4921614;29;19923;-72
2023/08/24 03:41:28;;;;;;;;;;;;;;;27.24;100.00;99664.41;4929935;29;19919;-71
2023/08/24 03:43:54;;;;;;;;;;;;;;;27.23;100.00;99671.72;4921079;29;20406;-71
2023/08/24 03:46:19;;;;;;;;;;;;;;;27.23;100.00;99673.59;4921551;29;19919;-72
2023/08/24 03:48:46;;;;;;;;;;;;;;;27.20;100.00;99676.81;4924147;29;20375;-71
2023/08/24 03:51:11;;;;;;;;;;;;;;;27.22;100.00;99675.50;4921530;29;19978;-71
2023/08/24 03:53:36;;;;;;;;;;;;;;;27.22;100.00;99682.78;4925564;29;19919;-72
2023/08/24 03:56:02;;;;;;;;;;;;;;;27.23;100.00;99674.41;4921983;29;20017;-73
2023/08/24 03:58:27;;;;;;;;;;;;;;;27.17;100.00;99680.84;4907178;29;19927;-72
2023/08/24 04:00:54;;;;;;;;;;;;;;;27.11;100.00;99681.81;4922878;29;19929;-72
2023/08/24 04:03:19;;;;;;;;;;;;;;;27.10;100.00;99674.75;4906311;29;20372;-73
2023/08/24 04:05:44;;;;;;;;;;;;;;;27.08;100.00;99693.16;4925340;29;19951;-73
2023/08/24 04:08:10;;;;;;;;;;;;;;;27.02;100.00;99690.63;4921546;29;19923;-72
2023/08/24 04:10:37;;;;;;;;;;;;;;;27.03;100.00;99701.22;4923856;29;20301;-72
2023/08/24 04:13:02;;;;;;;;;;;;;;;26.99;100.00;99700.03;4925315;29;19950;-72
2023/08/24 04:15:28;;;;;;;;;;;;;;;26.88;100.00;99703.66;4923614;29;20321;-73
2023/08/24 04:17:53;;;;;;;;;;;;;;;26.84;100.00;99703.31;4922137;29;19930;-72
2023/08/24 04:20:18;;;;;;;;;;;;;;;26.80;100.00;99712.16;4923754;29;20391;-71
2023/08/24 04:22:44;;;;;;;;;;;;;;;26.88;100.00;99717.19;4922064;29;19955;-72
2023/08/24 04:25:09;;;;;;;;;;;;;;;26.83;100.00;99717.06;4925809;29;19923;-73
2023/08/24 04:27:35;;;;;;;;;;;;;;;26.87;100.00;99724.47;4922761;29;19923;-72
2023/08/24 04:30:00;;;;;;;;;;;;;;;26.80;100.00;99720.28;4924748;29;20062;-72
2023/08/24 04:32:27;;;;;;;;;;;;;;;26.70;100.00;99718.19;4923749;29;20057;-72
2023/08/24 04:34:52;;;;;;;;;;;;;;;26.33;100.00;99723.19;4923161;29;19923;-72
2023/08/24 04:37:18;;;;;;;;;;;;;;;26.26;100.00;99717.13;4924878;29;19930;-72
2023/08/24 04:39:43;;;;;;;;;;;;;;;26.14;100.00;99713.59;4922029;29;19924;-71
2023/08/24 04:42:08;;;;;;;;;;;;;;;26.04;100.00;99718.78;4927756;29;19922;-72
2023/08/24 04:44:34;;;;;;;;;;;;;;;25.94;100.00;99718.56;4922846;29;19934;-71
2023/08/24 04:46:59;;;;;;;;;;;;;;;25.89;100.00;99721.19;4924072;29;19934;-73
2023/08/24 04:49:24;;;;;;;;;;;;;;;25.86;100.00;99717.06;4923860;29;20006;-72
2023/08/24 04:51:50;;;;;;;;;;;;;;;25.82;100.00;99720.47;4922695;29;20300;-75
2023/08/24 04:54:15;;;;;;;;;;;;;;;25.91;100.00;99721.78;4925207;29;20006;-75
2023/08/24 04:56:41;;;;;;;;;;;;;;;25.99;100.00;99726.78;4921904;29;19930;-73
2023/08/24 04:59:07;;;;;;;;;;;;;;;26.04;100.00;99730.41;4919917;29;20426;-73
2023/08/24 05:01:33;;;;;;;;;;;;;;;26.00;100.00;99725.75;4924198;29;20384;-75
2023/08/24 05:03:58;;;;;;;;;;;;;;;25.99;100.00;99726.78;4925390;29;19923;-74
2023/08/24 05:06:24;;;;;;;;;;;;;;;26.10;100.00;99734.06;4923023;29;19926;-72
2023/08/24 05:08:49;;;;;;;;;;;;;;;26.21;100.00;99735.09;4923110;29;19933;-74
2023/08/24 05:11:17;;;;;;;;;;;;;;;26.20;100.00;99734.28;4925482;29;20396;-74
2023/08/24 05:13:42;;;;;;;;;;;;;;;26.28;100.00;99733.91;4923138;29;19923;-74
2023/08/24 05:16:09;;;;;;;;;;;;;;;26.30;100.00;99729.09;4928081;29;19985;-76
2023/08/24 05:18:35;;;;;;;;;;;;;;;26.32;100.00;99736.97;4925184;29;19927;-74
2023/08/24 05:21:00;;;;;;;;;;;;;;;26.20;100.00;99739.69;4922944;29;19927;-76
2023/08/24 05:23:25;;;;;;;;;;;;;;;26.14;100.00;99739.81;4925798;29;20288;-75
2023/08/24 05:25:51;;;;;;;;;;;;;;;26.17;100.00;99744.75;4927140;29;20296;-74
2023/08/24 05:28:16;;;;;;;;;;;;;;;26.13;100.00;99733.59;4925489;29;19975;-75
2023/08/24 05:30:42;;;;;;;;;;;;;;;25.96;100.00;99729.97;4928336;29;19985;-75
2023/08/24 05:33:07;;;;;;;;;;;;;;;26.01;100.00;99727.38;4925448;29;19959;-75
2023/08/24 05:35:32;;;;;;;;;;;;;;;26.06;100.00;99738.31;4927693;29;20017;-75
2023/08/24 05:37:58;;;;;;;;;;;;;;;26.09;100.00;99737.84;4926123;29;20284;-76
2023/08/24 05:40:23;;;;;;;;;;;;;;;26.17;100.00;99740.16;4926490;29;19923;-75
2023/08/24 05:42:48;;;;;;;;;;;;;;;26.19;100.00;99738.03;4927695;29;19919;-75
2023/08/24 05:45:13;;;;;;;;;;;;;;;26.19;100.00;99748.84;4927113;29;19934;-75
2023/08/24 05:47:39;;;;;;;;;;;;;;;26.24;100.00;99743.56;4924746;29;19923;-75
2023/08/24 05:50:04;;;;;;;;;;;;;;;26.35;100.00;99742.72;4927415;29;19931;-74
2023/08/24 05:52:30;;;;;;;;;;;;;;;26.46;100.00;99743.72;4925817;29;20488;-74
2023/08/24 05:54:55;;;;;;;;;;;;;;;26.44;100.00;99752.09;4925972;29;20376;-74
2023/08/24 05:57:20;;;;;;;;;;;;;;;26.43;100.00;99755.88;4924225;29;19927;-75
2023/08/24 05:59:46;;;;;;;;;;;;;;;26.49;100.00;99748.66;4922430;29;20261;-75
2023/08/24 06:02:11;;;;;;;;;;;;;;;26.46;100.00;99752.66;4925958;29;20337;-76
2023/08/24 06:04:36;;;;;;;;;;;;;;;26.33;100.00;99755.66;4923593;29;19923;-76
2023/08/24 06:07:04;;;;;;;;;;;;;;;26.18;100.00;99758.03;4925434;29;19950;-75
2023/08/24 06:09:29;;;;;;;;;;;;;;;26.06;100.00;99749.13;4923596;29;20009;-78
2023/08/24 06:11:55;;;;;;;;;;;;;;;26.06;100.00;99743.72;4928640;29;19970;-73
2023/08/24 06:14:20;;;;;;;;;;;;;;;26.00;100.00;99744.66;4935766;29;20233;-73
2023/08/24 06:16:45;;;;;;;;;;;;;;;26.04;100.00;99748.53;4947991;29;20775;-72
2023/08/24 06:19:11;;;;;;;;;;;;;;;26.02;100.00;99747.97;4932283;29;19926;-72
2023/08/24 06:21:36;;;;;;;;;;;;;;;25.98;100.00;99765.69;4932666;29;20344;-71
2023/08/24 06:24:01;;;;;;;;;;;;;;;25.96;100.00;99760.56;4934983;29;20018;-72
2023/08/24 06:26:27;;;;;;;;;;;;;;;26.14;100.00;99759.56;4935540;29;19922;-73
2023/08/24 06:28:52;;;;;;;;;;;;;;;26.27;100.00;99753.91;4934755;29;20328;-72
2023/08/24 06:31:17;;;;;;;;;;;;;;;26.39;100.00;99754.69;4934919;29;20368;-73
2023/08/24 06:33:43;;;;;;;;;;;;;;;26.45;100.00;99747.50;4934180;29;19927;-73
2023/08/24 06:36:08;;;;;;;;;;;;;;;26.55;100.00;99753.13;4949616;29;19923;-71
2023/08/24 06:38:34;;;;;;;;;;;;;;;26.62;100.00;99748.38;4934550;29;19959;-73
2023/08/24 06:40:59;;;;;;;;;;;;;;;26.67;100.00;99750.38;4948730;29;20760;-73
2023/08/24 06:43:25;;;;;;;;;;;;;;;26.63;100.00;99750.00;4949722;28;19922;-72
2023/08/24 06:45:51;;;;;;;;;;;;;;;26.63;100.00;99758.13;4934653;29;19929;-73
2023/08/24 06:48:17;;;;;;;;;;;;;;;26.73;100.00;99754.81;4934763;29;20021;-74
2023/08/24 06:50:43;;;;;;;;;;;;;;;26.81;100.00;99757.09;4934665;29;19926;-72
2023/08/24 06:53:09;;;;;;;;;;;;;;;26.91;100.00;99757.34;4934726;29;20387;-75
2023/08/24 06:55:37;;;;;;;;;;;;;;;26.96;100.00;99754.72;4934163;29;19978;-72
2023/08/24 06:58:05;;;;;;;;;;;;;;;26.83;100.00;99760.41;4934821;29;19926;-72
2023/08/24 07:00:30;;;;;;;;;;;;;;;26.97;100.00;99761.78;4934885;29;20380;-71
2023/08/24 07:02:55;;;;;;;;;;;;;;;27.02;100.00;99759.16;4933552;29;20439;-74
2023/08/24 07:05:21;;;;;;;;;;;;;;;27.12;100.00;99759.31;4935383;29;20355;-74
2023/08/24 07:07:47;;;;;;;;;;;;;;;27.20;100.00;99758.91;4934630;29;19958;-77
2023/08/24 07:10:12;;;;;;;;;;;;;;;27.27;100.00;99750.63;4936676;28;19962;-78
2023/08/24 07:12:41;;;;;;;;;;;;;;;27.33;100.00;99755.06;4929750;29;19931;-74
2023/08/24 07:15:07;;;;;;;;;;;;;;;27.36;100.00;99761.84;4922433;29;19935;-73
2023/08/24 07:17:32;;;;;;;;;;;;;;;27.42;100.00;99758.16;4925518;29;20012;-74
2023/08/24 07:19:57;;;;;;;;;;;;;;;27.55;100.00;99753.25;4926650;29;19927;-74
2023/08/24 07:22:23;;;;;;;;;;;;;;;27.71;100.00;99754.28;4923258;29;19927;-74
2023/08/24 07:24:52;;;;;;;;;;;;;;;27.85;100.00;99747.44;4925335;29;19923;-73
2023/08/24 07:27:17;;;;;;;;;;;;;;;27.99;100.00;99753.31;4923491;29;19949;-74
2023/08/24 07:29:43;;;;;;;;;;;;;;;28.05;100.00;99750.41;4926031;29;19981;-74
2023/08/24 07:32:08;;;;;;;;;;;;;;;28.10;100.00;99739.63;4923042;29;19923;-71
2023/08/24 07:34:34;;;;;;;;;;;;;;;28.16;100.00;99745.16;4925798;29;19931;-73
2023/08/24 07:37:00;;;;;;;;;;;;;;;28.21;100.00;99739.81;4922769;29;19981;-73
2023/08/24 07:39:25;;;;;;;;;;;;;;;28.31;100.00;99742.63;4924049;29;19923;-73
2023/08/24 07:41:51;;;;;;;;;;;;;;;28.42;100.00;99742.50;4923588;29;19978;-72
2023/08/24 07:44:16;;;;;;;;;;;;;;;28.47;100.00;99739.00;4923339;29;19923;-73
2023/08/24 07:46:42;;;;;;;;;;;;;;;28.54;100.00;99739.63;4925552;29;19923;-74
2023/08/24 07:49:07;;;;;;;;;;;;;;;28.65;100.00;99740.53;4919159;29;19927;-73
2023/08/24 07:51:33;;;;;;;;;;;;;;;28.71;100.00;99732.19;4922840;29;19934;-74
2023/08/24 07:53:59;;;;;;;;;;;;;;;28.81;100.00;99729.59;4921425;29;20022;-74
2023/08/24 07:56:25;;;;;;;;;;;;;;;28.89;100.00;99741.91;4925700;29;19928;-73
2023/08/24 07:58:50;;;;;;;;;;;;;;;28.95;100.00;99740.88;4923365;29;19970;-74
2023/08/24 08:01:15;;;;;;;;;;;;;;;29.04;100.00;99742.03;4926260;29;19923;-74
2023/08/24 08:03:41;;;;;;;;;;;;;;;29.14;100.00;99744.84;4922419;29;20264;-74
2023/08/24 08:06:06;;;;;;;;;;;;;;;29.19;100.00;99741.34;4925314;29;19923;-73
2023/08/24 08:08:32;;;;;;;;;;;;;;;29.26;100.00;99740.06;4925275;29;20013;-74
2023/08/24 08:10:59;;;;;;;;;;;;;;;29.42;100.00;99735.56;4923627;29;20446;-73
2023/08/24 08:13:25;;;;;;;;;;;;;;;29.56;100.00;99731.31;4925013;29;20296;-74
2023/08/24 08:15:50;;;;;;;;;;;;;;;29.65;100.00;99735.19;4924776;29;19922;-74
2023/08/24 08:18:36;;;;;;;;;;;;;;;29.74;100.00;99737.41;4925202;29;19970;-74
2023/08/24 08:21:02;;;;;;;;;;;;;;;29.78;100.00;99738.50;4924755;29;19959;-74
2023/08/24 08:23:27;;;;;;;;;;;;;;;29.79;100.00;99734.72;4906823;29;19923;-74
2023/08/24 08:25:53;;;;;;;;;;;;;;;29.82;100.00;99728.72;4921728;29;19923;-72
2023/08/24 08:28:18;;;;;;;;;;;;;;;29.82;100.00;99734.16;4924289;29;20295;-73
2023/08/24 08:30:45;;;;;;;;;;;;;;;29.90;100.00;99728.25;4924613;29;19934;-73
2023/08/24 08:33:10;;;;;;;;;;;;;;;30.00;100.00;99731.84;4925528;29;20404;-73
2023/08/24 08:35:36;;;;;;;;;;;;;;;30.12;100.00;99728.91;4922505;29;19954;-74
2023/08/24 08:38:02;;;;;;;;;;;;;;;30.19;100.00;99734.94;4924823;29;19923;-71
2023/08/24 08:40:30;;;;;;;;;;;;;;;30.24;100.00;99726.78;4924353;29;19930;-74
2023/08/24 08:42:59;;;;;;;;;;;;;;;30.28;100.00;99736.03;4923730;29;19982;-76
2023/08/24 08:45:26;;;;;;;;;;;;;;;30.34;100.00;99732.25;4921819;29;19927;-73
2023/08/24 08:47:56;;;;;;;;;;;;;;;30.46;100.00;99740.16;4920525;29;19929;-72
2023/08/24 08:50:23;;;;;;;;;;;;;;;30.51;100.00;99732.06;4924461;29;19985;-73
2023/08/24 08:52:48;;;;;;;;;;;;;;;30.53;100.00;99729.88;4925166;29;20280;-73
2023/08/24 08:55:15;;;;;;;;;;;;;;;30.58;100.00;99726.34;4922207;29;19927;-75
2023/08/24 08:57:42;;;;;;;;;;;;;;;30.61;100.00;99726.63;4926953;29;19923;-74
2023/08/24 09:00:09;;;;;;;;;;;;;;;30.64;100.00;99719.81;4929181;29;20406;-74
2023/08/24 09:02:35;;;;;;;;;;;;;;;30.68;100.00;99727.19;4927622;29;19938;-74
2023/08/24 09:05:01;;;;;;;;;;;;;;;30.77;100.00;99713.84;4925313;29;19930;-72
2023/08/24 09:07:27;;;;;;;;;;;;;;;30.90;100.00;99716.03;4925002;29;20399;-72
2023/08/24 09:09:52;;;;;;;;;;;;;;;31.03;100.00;99718.22;4923289;29;19959;-72
2023/08/24 09:12:18;;;;;;;;;;;;;;;31.11;100.00;99722.31;4923690;29;20229;-73
2023/08/24 09:14:43;;;;;;;;;;;;;;;31.19;100.00;99708.97;4923198;29;20288;-73
2023/08/24 09:17:09;;;;;;;;;;;;;;;31.23;100.00;99711.97;4919013;29;20062;-73
2023/08/24 09:19:38;;;;;;;;;;;;;;;31.27;100.00;99708.44;4923140;29;19938;-74
2023/08/24 09:22:05;;;;;;;;;;;;;;;31.30;100.00;99702.41;4922400;29;19931;-74
2023/08/24 09:24:34;;;;;;;;;;;;;;;31.39;100.00;99704.59;4919482;29;20013;-73
2023/08/24 09:27:00;;;;;;;;;;;;;;;31.44;100.00;99704.59;4921002;29;19923;-73
2023/08/24 09:29:26;;;;;;;;;;;;;;;31.49;100.00;99701.84;4904802;29;19923;-75
2023/08/24 09:31:51;;;;;;;;;;;;;;;31.56;99.32;99699.66;4922794;29;20406;-74
2023/08/24 09:34:26;;;;;;;;;;;;;;;31.58;96.08;99702.91;4920625;29;19923;-73
2023/08/24 09:36:51;;;;;;;;;;;;;;;31.60;96.87;99693.41;4911250;29;20014;-77
2023/08/24 09:39:17;;;;;;;;;;;;;;;31.64;97.03;99690.91;4911586;29;20019;-74
2023/08/24 09:41:47;;;;;;;;;;;;;;;31.69;97.05;99685.47;4924962;29;19919;-74
2023/08/24 09:44:12;;;;;;;;;;;;;;;31.73;95.29;99686.53;4921866;29;20074;-74
2023/08/24 09:46:39;;;;;;;;;;;;;;;31.76;94.45;99677.78;4927860;29;19975;-75
2023/08/24 09:49:04;;;;;;;;;;;;;;;31.80;94.27;99678.88;4927930;29;19954;-74
2023/08/24 09:51:30;;;;;;;;;;;;;;;31.89;92.02;99671.72;4924485;29;20013;-73
2023/08/24 09:53:58;;;;;;;;;;;;;;;31.88;91.57;99675.56;4926688;29;19923;-74
2023/08/24 09:56:25;;;;;;;;;;;;;;;31.91;92.29;99666.00;4928814;29;19929;-73
2023/08/24 09:58:53;;;;;;;;;;;;;;;31.94;91.83;99668.97;4924972;29;19923;-73
2023/08/24 10:01:19;;;;;;;;;;;;;;;31.93;91.24;99667.34;4924523;29;19959;-74
2023/08/24 10:03:46;;;;;;;;;;;;;;;31.95;91.31;99662.44;4926657;29;19926;-73
2023/08/24 10:06:12;;;;;;;;;;;;;;;32.00;90.03;99667.84;4924113;29;20069;-73
2023/08/24 10:08:40;;;;;;;;;;;;;;;32.01;91.13;99663.22;4926195;29;20452;-72
2023/08/24 10:11:06;;;;;;;;;;;;;;;32.06;89.38;99661.28;4922699;29;20292;-74
2023/08/24 10:13:47;;;;;;;;;;;;;;;32.09;88.86;99649.81;4925817;29;19923;-73
2023/08/24 10:16:13;;;;;;;;;;;;;;;32.17;86.00;99650.31;4926351;29;20427;-73
2023/08/24 10:18:39;;;;;;;;;;;;;;;32.23;86.13;99649.19;4923199;29;20404;-73
2023/08/24 10:21:05;;;;;;;;;;;;;;;32.26;84.64;99645.91;4926173;29;19930;-73
2023/08/24 10:23:31;;;;;;;;;;;;;;;32.32;83.19;99648.34;4923340;29;19923;-74
2023/08/24 10:25:56;;;;;;;;;;;;;;;32.36;83.28;99637.66;4924713;29;19927;-74
2023/08/24 10:28:23;;;;;;;;;;;;;;;32.41;81.27;99634.88;4925517;29;19973;-74
2023/08/24 10:30:49;;;;;;;;;;;;;;;32.43;81.86;99627.22;4923589;29;19923;-74
2023/08/24 10:33:15;;;;;;;;;;;;;;;32.49;77.98;99620.63;4926300;29;20340;-74
2023/08/24 10:35:41;;;;;;;;;;;;;;;32.56;78.08;99625.78;4921987;29;19923;-74
2023/08/24 10:38:07;;;;;;;;;;;;;;;32.59;79.24;99620.53;4926141;29;19923;-74
2023/08/24 10:40:33;;;;;;;;;;;;;;;32.66;77.51;99625.72;4924141;29;19922;-74
2023/08/24 10:43:02;;;;;;;;;;;;;;;32.67;78.09;99628.16;4924424;29;20014;-74
2023/08/24 10:45:47;;;;;;;;;;;;;;;32.73;76.77;99618.81;4925300;29;20001;-75
2023/08/24 10:48:12;;;;;;;;;;;;;;;32.76;74.61;99609.22;4922766;29;19923;-74
2023/08/24 10:50:37;;;;;;;;;;;;;;;32.79;76.40;99609.47;4925809;29;20013;-73
2023/08/24 10:53:06;;;;;;;;;;;;;;;32.83;69.90;99604.25;4923583;29;20320;-74
2023/08/24 10:55:35;;;;;;;;;;;;;;;32.95;71.78;99601.13;4925276;29;19923;-74
2023/08/24 10:58:02;;;;;;;;;;;;;;;32.99;73.42;99602.19;4923394;29;19973;-74
2023/08/24 11:00:29;;;;;;;;;;;;;;;33.01;72.79;99602.72;4924642;29;19923;-73
2023/08/24 11:02:55;;;;;;;;;;;;;;;33.04;74.28;99604.88;4924284;29;19934;-73
2023/08/24 11:05:24;;;;;;;;;;;;;;;33.08;75.41;99589.53;4923488;29;20259;-73
2023/08/24 11:07:51;;;;;;;;;;;;;;;33.11;75.49;99594.38;4925153;29;19923;-73
2023/08/24 11:10:17;;;;;;;;;;;;;;;33.17;73.72;99590.50;4921957;29;19971;-73
2023/08/24 11:13:02;;;;;;;;;;;;;;;33.20;73.60;99587.22;4925251;29;19923;-73
2023/08/24 11:15:31;;;;;;;;;;;;;;;33.21;72.11;99588.88;4922927;29;19923;-74
2023/08/24 11:18:20;;;;;;;;;;;;;;;33.30;71.51;99589.84;4925423;29;19927;-73
2023/08/24 11:20:47;;;;;;;;;;;;;;;33.35;71.45;99581.56;4918494;29;20329;-74
2023/08/24 11:23:12;;;;;;;;;;;;;;;33.44;69.74;99582.56;4925831;29;20258;-73
2023/08/24 11:25:38;;;;;;;;;;;;;;;33.46;69.07;99577.59;4922405;29;20500;-73
2023/08/24 11:28:04;;;;;;;;;;;;;;;33.50;68.41;99575.94;4924557;29;19919;-74
2023/08/24 11:30:30;;;;;;;;;;;;;;;33.54;68.23;99570.69;4923689;29;19922;-74
2023/08/24 11:32:56;;;;;;;;;;;;;;;33.62;68.79;99573.59;4922150;29;19923;-74
2023/08/24 11:35:23;;;;;;;;;;;;;;;33.64;68.81;99560.41;4924323;29;20280;-74
2023/08/24 11:37:54;;;;;;;;;;;;;;;33.73;66.81;99560.63;4922096;29;19923;-73
2023/08/24 11:40:26;;;;;;;;;;;;;;;33.78;67.45;99551.50;4924526;29;20435;-74
2023/08/24 11:42:57;;;;;;;;;;;;;;;33.89;65.30;99556.53;4922482;29;20014;-74
2023/08/24 11:45:23;;;;;;;;;;;;;;;34.03;64.45;99545.69;4924467;29;19929;-73
2023/08/24 11:47:50;;;;;;;;;;;;;;;34.13;64.59;99545.50;4925091;29;20304;-73
2023/08/24 11:50:16;;;;;;;;;;;;;;;34.18;65.32;99548.16;4925235;29;20391;-75
2023/08/24 11:52:42;;;;;;;;;;;;;;;34.27;64.56;99546.41;4921698;29;19923;-73
2023/08/24 11:55:08;;;;;;;;;;;;;;;34.37;63.34;99540.75;4924867;29;19966;-73
2023/08/24 11:57:34;;;;;;;;;;;;;;;34.42;64.21;99535.19;4922263;29;20375;-73
2023/08/24 12:00:00;;;;;;;;;;;;;;;34.53;63.25;99533.91;4923470;29;19930;-73
2023/08/24 12:02:25;;;;;;;;;;;;;;;34.67;62.59;99533.13;4923767;29;20352;-73
2023/08/24 12:04:51;;;;;;;;;;;;;;;34.83;60.42;99531.75;4922235;29;19927;-73
2023/08/24 12:07:17;;;;;;;;;;;;;;;35.02;59.64;99529.75;4924791;29;19930;-73
2023/08/24 12:09:42;;;;;;;;;;;;;;;35.19;60.03;99529.97;4921463;29;20010;-73
2023/08/24 12:12:15;;;;;;;;;;;;;;;35.41;59.36;99521.00;4927627;29;19994;-72
2023/08/24 12:14:40;;;;;;;;;;;;;;;35.63;58.13;99512.88;4928874;29;20372;-73
2023/08/24 12:17:07;;;;;;;;;;;;;;;35.81;57.25;99513.88;4935938;29;19930;-73
2023/08/24 12:19:32;;;;;;;;;;;;;;;36.04;56.24;99509.19;4933012;29;19923;-74
2023/08/24 12:21:58;;;;;;;;;;;;;;;36.17;55.21;99507.53;4932173;28;19922;-72
2023/08/24 12:24:23;;;;;;;;;;;;;;;36.27;54.79;99510.03;4931476;29;19923;-73
2023/08/24 12:26:55;;;;;;;;;;;;;;;36.32;53.53;99501.66;4931982;29;20013;-73
2023/08/24 12:29:20;;;;;;;;;;;;;;;36.43;53.32;99487.34;4932799;29;19942;-73
2023/08/24 12:31:45;;;;;;;;;;;;;;;36.52;53.05;99490.16;4933546;29;19987;-73
2023/08/24 12:34:14;;;;;;;;;;;;;;;36.64;54.24;99476.63;4936767;29;19919;-72